Terminal Aerodrome Forecast
Issued by NWS Charleston, WV

Home | Current Version | Previous Version | Text Only | Print | Product List | Glossary On
Versions: 1 2 3 4 5 6 7 8 9 10 11 12 13 14 15 16 17 18 19 20 21 22
000
FTUS41 KRLX 282320
TAFEKN
TAF
KEKN 282320Z 2900/2924 30006KT P6SM VCSH SCT020 OVC035
      TEMPO 2901/2902 BKN020
     FM290200 32005KT P6SM OVC015
     FM290500 33003KT P6SM OVC008
     FM290700 34002KT 4SM BR OVC006
     FM291300 36003KT P6SM OVC010
     FM291400 02004KT P6SM BKN015
     FM291600 01005KT P6SM BKN020
     FM291800 36006KT P6SM SCT025=

USA.gov is the U.S. government's official web portal to all federal, state and local government web resources and services.